Vibrant Curiosity — 2BQE2 — position and weather

sailwx.info

Track history (hours):
 
Tides and Currents Weather Stations Pressure Air Temp Water Temp Dewpoint Dewpoint Depression Visibility Wind Speed Wind Dir Waves Ship Positions

Vibrant Curiosity

Last reported at 2016-Jan-07 00:33 UTC. Time now 2016-Feb-13 23:42 UTC.
Position N 36°11' E 026°22'.
Warning: this ship's position is 37 days out of date.

Length 85 m; draft 4 m.

Type: Pleasure craft. MMSI: 235068366.

Date/timePositionNaut miles runAvg speedWind from/ knotsBaromVisibWave heightAir tempDewpointWater temp
2016-Jan-07 00:33N 36°11' E 026°22'1514.6
2016-Jan-06 23:33N 36°11' E 026°04'1514.5
2016-Jan-06 22:33N 36°11' E 025°46'1514.6
2016-Jan-06 21:33N 36°11' E 025°27'1514.7
2016-Jan-06 20:33N 36°12' E 025°09'1514.7
2016-Jan-06 19:34N 36°14' E 024°51'1515.3
2016-Jan-06 18:33N 36°16' E 024°33'1814.6
2016-Jan-06 17:20N 36°18' E 024°11'40814.6
2016-Jan-05 13:25N 37°50' E 015°53'1315.4
2016-Jan-05 12:33N 37°56' E 015°38'1515.2
2016-Jan-05 11:33N 38°11' E 015°35'9 9.0
2016-Jan-05 10:33N 38°20' E 015°32'1615.4
2016-Jan-05 09:33N 38°20' E 015°12'1515.2
2016-Jan-05 08:33N 38°21' E 014°53'4615.2
2016-Jan-05 05:32N 38°28' E 013°55'1515.1
2016-Jan-05 04:33N 38°30' E 013°37'1514.9
2016-Jan-05 03:34N 38°32' E 013°18'1515.1
2016-Jan-05 02:33N 38°35' E 012°59'1615.1
2016-Jan-05 01:31N 38°37' E 012°39'14814.6
2016-Jan-04 15:24N 39°00' E 009°31'1315.0
2016-Jan-04 14:33N 39°07' E 009°17'8 8.5
2016-Jan-04 13:33N 39°11' E 009°08'0 0.0
2016-Jan-04 12:32N 39°11' E 009°08'0 0.0
2016-Jan-04 11:29N 39°11' E 009°08'0 0.0
2016-Jan-04 10:32N 39°11' E 009°08'0 0.0
2016-Jan-04 09:32N 39°11' E 009°08'0 0.0
2016-Jan-04 08:32N 39°11' E 009°08'0 0.0
2016-Jan-04 07:32N 39°11' E 009°08'3 3.5
2016-Jan-04 06:33N 39°08' E 009°09'1211.5
2016-Jan-04 05:32N 38°57' E 009°05'1111.0
2016-Jan-04 04:33N 38°50' E 008°53'45512.6
2016-Jan-02 16:28N 37°28' W 000°36'1112.2
2016-Jan-02 15:32N 37°30' W 000°50'  
Track history (hours):
 
Tides and Currents Weather Stations Pressure Air Temp Water Temp Dewpoint Dewpoint Depression Visibility Wind Speed Wind Dir Waves Ship Positions

Vibrant Curiosity

Last reported at 2016-Jan-07 00:33 UTC. Time now 2016-Feb-13 23:42 UTC.
Position N 36°11' E 026°22'.
Warning: this ship's position is 37 days out of date.

Length 85 m; draft 4 m.

Type: Pleasure craft. MMSI: 235068366.

Date/timePositionNaut miles runAvg speedWind from/ knotsBaromVisibWave heightAir tempDewpointWater temp
2016-Jan-07 00:33N 36°11' E 026°22'1514.6
2016-Jan-06 23:33N 36°11' E 026°04'1514.5
2016-Jan-06 22:33N 36°11' E 025°46'1514.6
2016-Jan-06 21:33N 36°11' E 025°27'1514.7
2016-Jan-06 20:33N 36°12' E 025°09'1514.7
2016-Jan-06 19:34N 36°14' E 024°51'1515.3
2016-Jan-06 18:33N 36°16' E 024°33'1814.6
2016-Jan-06 17:20N 36°18' E 024°11'40814.6
2016-Jan-05 13:25N 37°50' E 015°53'1315.4
2016-Jan-05 12:33N 37°56' E 015°38'1515.2
2016-Jan-05 11:33N 38°11' E 015°35'9 9.0
2016-Jan-05 10:33N 38°20' E 015°32'1615.4
2016-Jan-05 09:33N 38°20' E 015°12'1515.2
2016-Jan-05 08:33N 38°21' E 014°53'4615.2
2016-Jan-05 05:32N 38°28' E 013°55'1515.1
2016-Jan-05 04:33N 38°30' E 013°37'1514.9
2016-Jan-05 03:34N 38°32' E 013°18'1515.1
2016-Jan-05 02:33N 38°35' E 012°59'1615.1
2016-Jan-05 01:31N 38°37' E 012°39'14814.6
2016-Jan-04 15:24N 39°00' E 009°31'1315.0
2016-Jan-04 14:33N 39°07' E 009°17'8 8.5
2016-Jan-04 13:33N 39°11' E 009°08'0 0.0
2016-Jan-04 12:32N 39°11' E 009°08'0 0.0
2016-Jan-04 11:29N 39°11' E 009°08'0 0.0
2016-Jan-04 10:32N 39°11' E 009°08'0 0.0
2016-Jan-04 09:32N 39°11' E 009°08'0 0.0
2016-Jan-04 08:32N 39°11' E 009°08'0 0.0
2016-Jan-04 07:32N 39°11' E 009°08'3 3.5
2016-Jan-04 06:33N 39°08' E 009°09'1211.5
2016-Jan-04 05:32N 38°57' E 009°05'1111.0
2016-Jan-04 04:33N 38°50' E 008°53'45512.6
2016-Jan-02 16:28N 37°28' W 000°36'1112.2
2016-Jan-02 15:32N 37°30' W 000°50'  

Dump ship's entire track history